Ampthill, VA

7:17 PM EST on November 25, 2014 (GMT -0500)
KF4AUZ Weather (Chesterfield, VA) | Change Station
CLOSE
Current Station
Personal Weather Station
Location: Richmond, VA
Elevation: 167 ft
Nearby Weather Stations

Elev 167 ft 37.40 °N, 77.46 °W | Updated 15 seconds ago

Partly Cloudy
Partly Cloudy
52.9 °F
Feels Like 52.9 °F
N
0.0
Wind Variable Wind from NNE
Gusts 0.0 mph

Today
High -- | Low -- °F
--% Chance of Precip.
Yesterday
High -- | Low -- °F
Precip. -- in
6:59 AM 4:53 PM
Waxing Crescent, 15% visible
Pressure 30.10 in
Visibility 10.0 miles
Clouds Few 12000 ft
Dew Point 44 °F
Humidity 73%
Rainfall 0.00 in
Snow Depth Not available.
UV 0.0 out of 12
Pollen 1.10 out of 12
Air Quality Not available.
Flu Activity Not available.
METAR KFCI 252355Z AUTO 00000KT 10SM FEW120 12/02 A3010 RMK AO1 10150 20120 402000120 52014

More Conditions Fewer Conditions

Pressure 30.10 in
Visibility 10.0 miles
Clouds Few 12000 ft
Dew Point 44 °F
Humidity 73%
Rainfall 0.00 in
Snow Depth Not available.
UV 0.0 out of 12
Pollen 1.10 out of 12
Air Quality Not available.
Flu Activity Not available.
METAR KFCI 252355Z AUTO 00000KT 10SM FEW120 12/02 A3010 RMK AO1 10150 20120 402000120 52014

More Conditions Fewer Conditions

10-Day Weather Forecast

Almanac

Astronomy

Nov. 25, 2014 Rise Set
Actual Time
Civil Twilight
Nautical Twilight
Astronomical Twilight
Moon
Length of Visible Light
Length of Day
Tomorrow will be .
, % of the Moon is Illuminated

Today's Extremes

State Highs State Lows

Community

WunderPhotos

Upload Photos

1,773,625 photos uploaded!

WunderBlogs® & News

Nearby

Air Quality

  Air Quality AQ Index Pollutant
Not available.

Snow Depth

Station Depth Elevation

Earthquake Activity

City Distance Mag. Time & Date
Minimum magnitude displayed is 2.5.

Coastal Water Temperatures

Place Temperature

Nearby Weather Stations